sensor_id;sensor_type;location;lat;lon;timestamp;temperature;humidity
843;DHT22;407;48.884;9.126;2023-06-10T00:01:13;18.50;1.00
843;DHT22;407;48.884;9.126;2023-06-10T00:03:39;18.40;1.00
843;DHT22;407;48.884;9.126;2023-06-10T00:06:06;18.30;1.00
843;DHT22;407;48.884;9.126;2023-06-10T00:08:31;18.30;1.00
843;DHT22;407;48.884;9.126;2023-06-10T00:10:58;18.40;99.90
843;DHT22;407;48.884;9.126;2023-06-10T00:13:25;18.40;99.90
843;DHT22;407;48.884;9.126;2023-06-10T00:15:51;18.50;1.00
843;DHT22;407;48.884;9.126;2023-06-10T00:18:17;18.40;1.00
843;DHT22;407;48.884;9.126;2023-06-10T00:20:43;18.40;1.00
843;DHT22;407;48.884;9.126;2023-06-10T00:23:08;18.40;83.90
843;DHT22;407;48.884;9.126;2023-06-10T00:25:35;18.40;1.00
843;DHT22;407;48.884;9.126;2023-06-10T00:28:00;18.30;99.90
843;DHT22;407;48.884;9.126;2023-06-10T00:30:26;18.40;99.90
843;DHT22;407;48.884;9.126;2023-06-10T00:32:51;18.40;99.90
843;DHT22;407;48.884;9.126;2023-06-10T00:35:17;18.60;99.90
843;DHT22;407;48.884;9.126;2023-06-10T00:37:42;18.60;99.90
843;DHT22;407;48.884;9.126;2023-06-10T00:40:08;18.60;99.90
843;DHT22;407;48.884;9.126;2023-06-10T00:42:34;18.60;1.00
843;DHT22;407;48.884;9.126;2023-06-10T00:45:00;18.40;1.00
843;DHT22;407;48.884;9.126;2023-06-10T00:47:26;18.40;1.00
843;DHT22;407;48.884;9.126;2023-06-10T00:49:53;18.30;1.00
843;DHT22;407;48.884;9.126;2023-06-10T00:52:21;18.30;1.00
843;DHT22;407;48.884;9.126;2023-06-10T00:54:47;18.30;1.00
843;DHT22;407;48.884;9.126;2023-06-10T00:57:14;18.20;72.20
843;DHT22;407;48.884;9.126;2023-06-10T00:59:42;18.10;14.60
843;DHT22;407;48.884;9.126;2023-06-10T01:02:10;18.00;99.90
843;DHT22;407;48.884;9.126;2023-06-10T01:04:36;18.00;99.90
843;DHT22;407;48.884;9.126;2023-06-10T01:07:23;17.90;1.00
843;DHT22;407;48.884;9.126;2023-06-10T01:10:04;17.90;46.00
843;DHT22;407;48.884;9.126;2023-06-10T01:12:33;17.80;1.00
843;DHT22;407;48.884;9.126;2023-06-10T01:15:00;17.60;99.90
843;DHT22;407;48.884;9.126;2023-06-10T01:17:27;17.60;14.70
843;DHT22;407;48.884;9.126;2023-06-10T01:19:54;17.50;99.90
843;DHT22;407;48.884;9.126;2023-06-10T01:22:21;17.50;99.90
843;DHT22;407;48.884;9.126;2023-06-10T01:24:48;17.60;99.90
843;DHT22;407;48.884;9.126;2023-06-10T01:27:15;17.40;1.00
843;DHT22;407;48.884;9.126;2023-06-10T01:29:46;17.40;1.00
843;DHT22;407;48.884;9.126;2023-06-10T01:32:28;17.30;1.00
843;DHT22;407;48.884;9.126;2023-06-10T01:34:56;17.30;34.30
843;DHT22;407;48.884;9.126;2023-06-10T01:37:24;17.20;99.90
843;DHT22;407;48.884;9.126;2023-06-10T01:39:52;17.10;1.00
843;DHT22;407;48.884;9.126;2023-06-10T01:42:19;16.90;1.00
843;DHT22;407;48.884;9.126;2023-06-10T01:44:45;17.00;99.90
843;DHT22;407;48.884;9.126;2023-06-10T01:47:14;17.00;99.90
843;DHT22;407;48.884;9.126;2023-06-10T01:49:39;16.90;1.00
843;DHT22;407;48.884;9.126;2023-06-10T01:52:05;17.00;99.90
843;DHT22;407;48.884;9.126;2023-06-10T01:54:31;16.90;99.90
843;DHT22;407;48.884;9.126;2023-06-10T01:56:57;16.90;99.90
843;DHT22;407;48.884;9.126;2023-06-10T01:59:22;16.70;99.90
843;DHT22;407;48.884;9.126;2023-06-10T02:01:48;16.80;1.00
843;DHT22;407;48.884;9.126;2023-06-10T02:04:13;16.80;1.00
843;DHT22;407;48.884;9.126;2023-06-10T02:06:39;16.70;1.00
843;DHT22;407;48.884;9.126;2023-06-10T02:09:04;16.70;1.00
843;DHT22;407;48.884;9.126;2023-06-10T02:11:30;16.60;99.90
843;DHT22;407;48.884;9.126;2023-06-10T02:13:55;16.50;99.90
843;DHT22;407;48.884;9.126;2023-06-10T02:16:21;16.50;1.00
843;DHT22;407;48.884;9.126;2023-06-10T02:18:47;16.50;99.90
843;DHT22;407;48.884;9.126;2023-06-10T02:21:13;16.40;1.00
843;DHT22;407;48.884;9.126;2023-06-10T02:23:41;16.50;1.00
843;DHT22;407;48.884;9.126;2023-06-10T02:26:06;16.40;1.00
843;DHT22;407;48.884;9.126;2023-06-10T02:28:32;16.30;99.90
843;DHT22;407;48.884;9.126;2023-06-10T02:30:57;16.30;99.90
843;DHT22;407;48.884;9.126;2023-06-10T02:33:24;16.30;99.90
843;DHT22;407;48.884;9.126;2023-06-10T02:35:50;16.30;1.00
843;DHT22;407;48.884;9.126;2023-06-10T02:38:15;16.30;1.00
843;DHT22;407;48.884;9.126;2023-06-10T02:40:42;16.30;1.00
843;DHT22;407;48.884;9.126;2023-06-10T02:43:08;16.20;99.90
843;DHT22;407;48.884;9.126;2023-06-10T02:45:34;16.20;1.00
843;DHT22;407;48.884;9.126;2023-06-10T02:47:59;16.10;1.00
843;DHT22;407;48.884;9.126;2023-06-10T02:50:25;16.10;1.00
843;DHT22;407;48.884;9.126;2023-06-10T02:52:51;16.20;1.00
843;DHT22;407;48.884;9.126;2023-06-10T02:55:16;16.20;1.00
843;DHT22;407;48.884;9.126;2023-06-10T02:57:42;16.20;1.00
843;DHT22;407;48.884;9.126;2023-06-10T03:00:08;16.10;1.00
843;DHT22;407;48.884;9.126;2023-06-10T03:02:39;16.00;1.00
843;DHT22;407;48.884;9.126;2023-06-10T03:05:07;16.00;1.00
843;DHT22;407;48.884;9.126;2023-06-10T03:07:36;16.10;1.00
843;DHT22;407;48.884;9.126;2023-06-10T03:10:02;16.10;1.00
843;DHT22;407;48.884;9.126;2023-06-10T03:12:27;16.00;1.00
843;DHT22;407;48.884;9.126;2023-06-10T03:14:53;15.90;43.90
843;DHT22;407;48.884;9.126;2023-06-10T03:17:18;15.90;29.10
843;DHT22;407;48.884;9.126;2023-06-10T03:19:44;15.90;14.10
843;DHT22;407;48.884;9.126;2023-06-10T03:22:11;16.00;1.00
843;DHT22;407;48.884;9.126;2023-06-10T03:30:36;16.20;1.00
843;DHT22;407;48.884;9.126;2023-06-10T03:33:01;16.20;99.90
843;DHT22;407;48.884;9.126;2023-06-10T03:35:27;16.10;1.00
843;DHT22;407;48.884;9.126;2023-06-10T03:37:52;16.00;1.00
843;DHT22;407;48.884;9.126;2023-06-10T03:40:18;16.00;1.00
843;DHT22;407;48.884;9.126;2023-06-10T03:42:43;16.00;1.00
843;DHT22;407;48.884;9.126;2023-06-10T03:45:10;15.90;1.00
843;DHT22;407;48.884;9.126;2023-06-10T03:47:37;16.00;43.20
843;DHT22;407;48.884;9.126;2023-06-10T03:50:04;16.10;1.20
843;DHT22;407;48.884;9.126;2023-06-10T03:52:30;16.20;1.00
843;DHT22;407;48.884;9.126;2023-06-10T03:54:55;16.20;1.00
843;DHT22;407;48.884;9.126;2023-06-10T03:57:21;16.20;1.00
843;DHT22;407;48.884;9.126;2023-06-10T03:59:46;16.20;99.90
843;DHT22;407;48.884;9.126;2023-06-10T04:02:12;16.30;99.90
843;DHT22;407;48.884;9.126;2023-06-10T04:04:37;16.30;99.90
843;DHT22;407;48.884;9.126;2023-06-10T04:07:04;16.30;99.90
843;DHT22;407;48.884;9.126;2023-06-10T04:09:30;16.40;99.90
843;DHT22;407;48.884;9.126;2023-06-10T04:11:55;16.40;99.90
843;DHT22;407;48.884;9.126;2023-06-10T04:14:21;16.50;99.90
843;DHT22;407;48.884;9.126;2023-06-10T04:16:47;16.60;99.90
843;DHT22;407;48.884;9.126;2023-06-10T04:19:12;16.60;99.90
843;DHT22;407;48.884;9.126;2023-06-10T04:21:39;16.60;99.90
843;DHT22;407;48.884;9.126;2023-06-10T04:24:04;16.70;1.00
843;DHT22;407;48.884;9.126;2023-06-10T04:26:30;16.80;99.90
843;DHT22;407;48.884;9.126;2023-06-10T04:28:55;16.90;1.00
843;DHT22;407;48.884;9.126;2023-06-10T04:31:21;17.10;1.00
843;DHT22;407;48.884;9.126;2023-06-10T04:33:46;17.20;99.90
843;DHT22;407;48.884;9.126;2023-06-10T04:36:12;17.20;1.00
843;DHT22;407;48.884;9.126;2023-06-10T04:38:37;17.30;1.00
843;DHT22;407;48.884;9.126;2023-06-10T04:41:03;17.40;1.00
843;DHT22;407;48.884;9.126;2023-06-10T04:43:29;17.50;99.90
843;DHT22;407;48.884;9.126;2023-06-10T04:45:56;17.50;1.00
843;DHT22;407;48.884;9.126;2023-06-10T04:48:21;17.60;1.00
843;DHT22;407;48.884;9.126;2023-06-10T04:50:49;17.80;1.00
843;DHT22;407;48.884;9.126;2023-06-10T04:53:15;18.00;99.90
843;DHT22;407;48.884;9.126;2023-06-10T04:55:42;18.30;1.00
843;DHT22;407;48.884;9.126;2023-06-10T04:58:07;19.10;1.00
843;DHT22;407;48.884;9.126;2023-06-10T05:00:33;20.40;1.00
843;DHT22;407;48.884;9.126;2023-06-10T05:02:58;22.20;1.00
843;DHT22;407;48.884;9.126;2023-06-10T05:05:24;23.60;1.00
843;DHT22;407;48.884;9.126;2023-06-10T05:07:49;24.80;99.90
843;DHT22;407;48.884;9.126;2023-06-10T05:10:15;25.60;99.90
843;DHT22;407;48.884;9.126;2023-06-10T05:12:41;26.70;99.90
843;DHT22;407;48.884;9.126;2023-06-10T05:15:08;27.50;99.90
843;DHT22;407;48.884;9.126;2023-06-10T05:17:34;28.50;99.90
843;DHT22;407;48.884;9.126;2023-06-10T05:22:28;29.40;99.90
843;DHT22;407;48.884;9.126;2023-06-10T05:24:54;29.70;99.90
843;DHT22;407;48.884;9.126;2023-06-10T05:27:19;30.30;99.90
843;DHT22;407;48.884;9.126;2023-06-10T05:29:46;31.10;99.90
843;DHT22;407;48.884;9.126;2023-06-10T05:32:19;31.60;99.90
843;DHT22;407;48.884;9.126;2023-06-10T05:34:44;31.60;99.90
843;DHT22;407;48.884;9.126;2023-06-10T05:37:10;32.00;99.90
843;DHT22;407;48.884;9.126;2023-06-10T05:39:36;32.50;99.90
843;DHT22;407;48.884;9.126;2023-06-10T05:42:07;32.80;99.90
843;DHT22;407;48.884;9.126;2023-06-10T05:44:33;32.70;99.90
843;DHT22;407;48.884;9.126;2023-06-10T05:46:59;33.00;99.90
843;DHT22;407;48.884;9.126;2023-06-10T05:49:24;32.70;99.90
843;DHT22;407;48.884;9.126;2023-06-10T05:51:50;32.70;99.90
843;DHT22;407;48.884;9.126;2023-06-10T05:54:17;32.60;99.90
843;DHT22;407;48.884;9.126;2023-06-10T05:56:43;32.70;99.90
843;DHT22;407;48.884;9.126;2023-06-10T05:59:09;33.00;99.90
843;DHT22;407;48.884;9.126;2023-06-10T06:01:34;34.00;99.90
843;DHT22;407;48.884;9.126;2023-06-10T06:04:00;34.30;99.90
843;DHT22;407;48.884;9.126;2023-06-10T06:06:26;34.60;99.90
843;DHT22;407;48.884;9.126;2023-06-10T06:08:51;34.20;99.90
843;DHT22;407;48.884;9.126;2023-06-10T06:11:17;34.10;99.90
843;DHT22;407;48.884;9.126;2023-06-10T06:13:42;34.40;99.90
843;DHT22;407;48.884;9.126;2023-06-10T06:16:08;33.90;99.90
843;DHT22;407;48.884;9.126;2023-06-10T06:18:33;34.10;99.90
843;DHT22;407;48.884;9.126;2023-06-10T06:20:59;34.40;99.90
843;DHT22;407;48.884;9.126;2023-06-10T06:23:25;34.30;99.90
843;DHT22;407;48.884;9.126;2023-06-10T06:25:50;34.60;99.90
843;DHT22;407;48.884;9.126;2023-06-10T06:28:16;34.10;99.90
843;DHT22;407;48.884;9.126;2023-06-10T06:30:41;32.90;99.90
843;DHT22;407;48.884;9.126;2023-06-10T06:33:07;32.90;99.90
843;DHT22;407;48.884;9.126;2023-06-10T06:35:33;32.50;99.90
843;DHT22;407;48.884;9.126;2023-06-10T06:38:00;32.30;99.90
843;DHT22;407;48.884;9.126;2023-06-10T06:40:26;32.30;99.90
843;DHT22;407;48.884;9.126;2023-06-10T06:42:51;32.50;99.90
843;DHT22;407;48.884;9.126;2023-06-10T06:45:17;32.60;99.90
843;DHT22;407;48.884;9.126;2023-06-10T06:47:42;32.20;99.90
843;DHT22;407;48.884;9.126;2023-06-10T06:50:09;32.20;99.90
843;DHT22;407;48.884;9.126;2023-06-10T06:52:35;31.50;99.90
843;DHT22;407;48.884;9.126;2023-06-10T06:55:00;31.60;99.90
843;DHT22;407;48.884;9.126;2023-06-10T06:57:26;32.50;99.90
843;DHT22;407;48.884;9.126;2023-06-10T06:59:51;33.40;99.90
843;DHT22;407;48.884;9.126;2023-06-10T07:02:17;33.90;99.90
843;DHT22;407;48.884;9.126;2023-06-10T07:04:44;33.60;99.90
843;DHT22;407;48.884;9.126;2023-06-10T07:07:11;33.80;99.90
843;DHT22;407;48.884;9.126;2023-06-10T07:09:37;33.80;99.90
843;DHT22;407;48.884;9.126;2023-06-10T07:12:03;33.60;99.90
843;DHT22;407;48.884;9.126;2023-06-10T07:14:29;34.20;99.90
843;DHT22;407;48.884;9.126;2023-06-10T07:16:54;34.20;99.90
843;DHT22;407;48.884;9.126;2023-06-10T07:19:20;34.60;99.90
843;DHT22;407;48.884;9.126;2023-06-10T07:21:45;34.90;99.90
843;DHT22;407;48.884;9.126;2023-06-10T07:24:11;34.90;99.90
843;DHT22;407;48.884;9.126;2023-06-10T07:26:36;35.70;99.90
843;DHT22;407;48.884;9.126;2023-06-10T07:29:02;35.20;99.90
843;DHT22;407;48.884;9.126;2023-06-10T07:31:28;35.50;99.90
843;DHT22;407;48.884;9.126;2023-06-10T07:33:54;35.40;99.90
843;DHT22;407;48.884;9.126;2023-06-10T07:36:19;35.20;99.90
843;DHT22;407;48.884;9.126;2023-06-10T07:38:45;36.10;99.90
843;DHT22;407;48.884;9.126;2023-06-10T07:41:10;36.10;99.90
843;DHT22;407;48.884;9.126;2023-06-10T07:43:37;35.80;99.90
843;DHT22;407;48.884;9.126;2023-06-10T07:46:02;35.80;99.90
843;DHT22;407;48.884;9.126;2023-06-10T07:50:54;35.10;99.90
843;DHT22;407;48.884;9.126;2023-06-10T07:53:19;35.70;99.90
843;DHT22;407;48.884;9.126;2023-06-10T07:55:45;36.30;99.90
843;DHT22;407;48.884;9.126;2023-06-10T07:58:10;36.50;99.90
843;DHT22;407;48.884;9.126;2023-06-10T08:00:36;36.90;99.90
843;DHT22;407;48.884;9.126;2023-06-10T08:03:02;36.70;99.90
843;DHT22;407;48.884;9.126;2023-06-10T08:05:27;36.50;99.90
843;DHT22;407;48.884;9.126;2023-06-10T08:07:53;36.10;99.90
843;DHT22;407;48.884;9.126;2023-06-10T08:10:18;36.30;99.90
843;DHT22;407;48.884;9.126;2023-06-10T08:12:44;36.70;99.90
843;DHT22;407;48.884;9.126;2023-06-10T08:15:10;35.70;99.90
843;DHT22;407;48.884;9.126;2023-06-10T08:17:37;35.80;99.90
843;DHT22;407;48.884;9.126;2023-06-10T08:20:03;35.80;99.90
843;DHT22;407;48.884;9.126;2023-06-10T08:22:29;35.60;99.90
843;DHT22;407;48.884;9.126;2023-06-10T08:24:54;36.10;99.90
843;DHT22;407;48.884;9.126;2023-06-10T08:27:21;36.40;99.90
843;DHT22;407;48.884;9.126;2023-06-10T08:29:47;36.70;99.90
843;DHT22;407;48.884;9.126;2023-06-10T08:32:12;36.30;99.90
843;DHT22;407;48.884;9.126;2023-06-10T08:34:38;36.50;99.90
843;DHT22;407;48.884;9.126;2023-06-10T08:37:07;36.40;99.90
843;DHT22;407;48.884;9.126;2023-06-10T08:39:32;36.30;99.90
843;DHT22;407;48.884;9.126;2023-06-10T08:42:05;36.50;99.90
843;DHT22;407;48.884;9.126;2023-06-10T08:44:35;36.60;99.90
843;DHT22;407;48.884;9.126;2023-06-10T08:47:12;36.00;99.90
843;DHT22;407;48.884;9.126;2023-06-10T08:49:43;36.30;99.90
843;DHT22;407;48.884;9.126;2023-06-10T08:52:14;36.20;99.90
843;DHT22;407;48.884;9.126;2023-06-10T08:54:43;37.20;99.90
843;DHT22;407;48.884;9.126;2023-06-10T08:57:10;37.50;99.90
843;DHT22;407;48.884;9.126;2023-06-10T08:59:36;37.20;99.90
843;DHT22;407;48.884;9.126;2023-06-10T09:02:02;37.70;99.90
843;DHT22;407;48.884;9.126;2023-06-10T09:04:29;37.40;99.90
843;DHT22;407;48.884;9.126;2023-06-10T09:09:23;37.30;99.90
843;DHT22;407;48.884;9.126;2023-06-10T09:11:48;37.40;99.90
843;DHT22;407;48.884;9.126;2023-06-10T09:14:14;38.20;99.90
843;DHT22;407;48.884;9.126;2023-06-10T09:16:42;37.30;99.90
843;DHT22;407;48.884;9.126;2023-06-10T09:19:08;37.00;99.90
843;DHT22;407;48.884;9.126;2023-06-10T09:21:34;37.20;99.90
843;DHT22;407;48.884;9.126;2023-06-10T09:24:01;36.90;99.90
843;DHT22;407;48.884;9.126;2023-06-10T09:26:30;36.60;99.90
843;DHT22;407;48.884;9.126;2023-06-10T09:29:06;36.90;99.90
843;DHT22;407;48.884;9.126;2023-06-10T09:31:35;36.60;99.90
843;DHT22;407;48.884;9.126;2023-06-10T09:34:14;36.60;99.90
843;DHT22;407;48.884;9.126;2023-06-10T09:36:41;36.20;99.90
843;DHT22;407;48.884;9.126;2023-06-10T09:39:17;35.90;99.90
843;DHT22;407;48.884;9.126;2023-06-10T09:41:43;36.30;99.90
843;DHT22;407;48.884;9.126;2023-06-10T09:44:20;36.00;99.90
843;DHT22;407;48.884;9.126;2023-06-10T09:46:49;36.40;99.90
843;DHT22;407;48.884;9.126;2023-06-10T09:49:18;36.20;99.90
843;DHT22;407;48.884;9.126;2023-06-10T09:51:52;35.30;99.90
843;DHT22;407;48.884;9.126;2023-06-10T09:54:18;35.10;99.90
843;DHT22;407;48.884;9.126;2023-06-10T09:56:50;35.40;99.90
843;DHT22;407;48.884;9.126;2023-06-10T09:59:16;35.80;99.90
843;DHT22;407;48.884;9.126;2023-06-10T10:01:55;36.40;99.90
843;DHT22;407;48.884;9.126;2023-06-10T10:04:24;37.40;99.90
843;DHT22;407;48.884;9.126;2023-06-10T10:06:50;37.70;99.90
843;DHT22;407;48.884;9.126;2023-06-10T10:09:16;37.90;99.90
843;DHT22;407;48.884;9.126;2023-06-10T10:11:43;37.70;99.90
843;DHT22;407;48.884;9.126;2023-06-10T10:14:09;35.80;99.90
843;DHT22;407;48.884;9.126;2023-06-10T10:16:40;34.90;99.90
843;DHT22;407;48.884;9.126;2023-06-10T10:19:23;34.30;99.90
843;DHT22;407;48.884;9.126;2023-06-10T10:21:53;34.20;99.90
843;DHT22;407;48.884;9.126;2023-06-10T10:24:26;34.70;99.90
843;DHT22;407;48.884;9.126;2023-06-10T10:26:59;35.30;99.90
843;DHT22;407;48.884;9.126;2023-06-10T10:29:33;35.60;99.90
843;DHT22;407;48.884;9.126;2023-06-10T10:32:02;35.10;99.90
843;DHT22;407;48.884;9.126;2023-06-10T10:34:49;34.20;99.90
843;DHT22;407;48.884;9.126;2023-06-10T10:37:17;33.50;99.90
843;DHT22;407;48.884;9.126;2023-06-10T10:39:43;33.00;99.90
843;DHT22;407;48.884;9.126;2023-06-10T10:42:09;32.70;99.90
843;DHT22;407;48.884;9.126;2023-06-10T10:44:39;32.50;99.90
843;DHT22;407;48.884;9.126;2023-06-10T10:47:08;32.20;99.90
843;DHT22;407;48.884;9.126;2023-06-10T10:49:35;32.50;99.90
843;DHT22;407;48.884;9.126;2023-06-10T10:52:03;32.60;99.90
843;DHT22;407;48.884;9.126;2023-06-10T10:54:34;32.70;99.90
843;DHT22;407;48.884;9.126;2023-06-10T10:57:09;32.70;99.90
843;DHT22;407;48.884;9.126;2023-06-10T11:04:58;31.40;99.90
843;DHT22;407;48.884;9.126;2023-06-10T11:07:30;31.50;99.90
843;DHT22;407;48.884;9.126;2023-06-10T11:10:07;31.60;99.90
843;DHT22;407;48.884;9.126;2023-06-10T11:15:12;31.80;99.90
843;DHT22;407;48.884;9.126;2023-06-10T11:17:59;31.60;99.90
843;DHT22;407;48.884;9.126;2023-06-10T11:23:07;31.60;99.90
843;DHT22;407;48.884;9.126;2023-06-10T11:25:39;31.20;99.90
843;DHT22;407;48.884;9.126;2023-06-10T11:28:27;31.60;99.90
843;DHT22;407;48.884;9.126;2023-06-10T11:30:57;31.80;99.90
843;DHT22;407;48.884;9.126;2023-06-10T11:33:24;32.30;99.90
843;DHT22;407;48.884;9.126;2023-06-10T11:35:50;32.70;99.90
843;DHT22;407;48.884;9.126;2023-06-10T11:38:15;32.80;99.90
843;DHT22;407;48.884;9.126;2023-06-10T11:40:50;32.90;99.90
843;DHT22;407;48.884;9.126;2023-06-10T11:43:19;32.70;99.90
843;DHT22;407;48.884;9.126;2023-06-10T11:45:45;32.90;99.90
843;DHT22;407;48.884;9.126;2023-06-10T11:48:12;33.00;99.90
843;DHT22;407;48.884;9.126;2023-06-10T11:50:38;32.80;99.90
843;DHT22;407;48.884;9.126;2023-06-10T11:53:04;32.30;99.90
843;DHT22;407;48.884;9.126;2023-06-10T11:55:48;32.20;99.90
843;DHT22;407;48.884;9.126;2023-06-10T11:58:18;32.40;99.90
843;DHT22;407;48.884;9.126;2023-06-10T12:00:48;32.50;99.90
843;DHT22;407;48.884;9.126;2023-06-10T12:03:15;32.80;99.90
843;DHT22;407;48.884;9.126;2023-06-10T12:05:54;32.90;99.90
843;DHT22;407;48.884;9.126;2023-06-10T12:08:19;33.10;99.90
843;DHT22;407;48.884;9.126;2023-06-10T12:10:45;32.80;99.90
843;DHT22;407;48.884;9.126;2023-06-10T12:13:11;32.80;99.90
843;DHT22;407;48.884;9.126;2023-06-10T12:15:37;32.90;99.90
843;DHT22;407;48.884;9.126;2023-06-10T12:18:03;32.30;99.90
843;DHT22;407;48.884;9.126;2023-06-10T12:20:32;32.10;99.90
843;DHT22;407;48.884;9.126;2023-06-10T12:23:00;32.30;99.90
843;DHT22;407;48.884;9.126;2023-06-10T12:25:27;32.60;99.90
843;DHT22;407;48.884;9.126;2023-06-10T12:27:56;32.70;99.90
843;DHT22;407;48.884;9.126;2023-06-10T12:30:24;32.20;99.90
843;DHT22;407;48.884;9.126;2023-06-10T12:32:51;32.10;99.90
843;DHT22;407;48.884;9.126;2023-06-10T12:35:25;31.80;99.90
843;DHT22;407;48.884;9.126;2023-06-10T12:40:27;31.50;99.90
843;DHT22;407;48.884;9.126;2023-06-10T12:42:54;32.00;99.90
843;DHT22;407;48.884;9.126;2023-06-10T12:45:27;32.50;99.90
843;DHT22;407;48.884;9.126;2023-06-10T12:48:04;32.00;99.90
843;DHT22;407;48.884;9.126;2023-06-10T12:50:31;31.60;99.90
843;DHT22;407;48.884;9.126;2023-06-10T12:52:56;31.30;99.90
843;DHT22;407;48.884;9.126;2023-06-10T12:55:22;31.10;99.90
843;DHT22;407;48.884;9.126;2023-06-10T12:57:49;31.00;99.90
843;DHT22;407;48.884;9.126;2023-06-10T13:00:15;31.20;99.90
843;DHT22;407;48.884;9.126;2023-06-10T13:02:41;31.30;99.90
843;DHT22;407;48.884;9.126;2023-06-10T13:05:07;31.60;99.90
843;DHT22;407;48.884;9.126;2023-06-10T13:07:32;31.60;99.90
843;DHT22;407;48.884;9.126;2023-06-10T13:09:58;31.60;99.90
843;DHT22;407;48.884;9.126;2023-06-10T13:12:25;31.50;99.90
843;DHT22;407;48.884;9.126;2023-06-10T13:14:54;31.10;99.90
843;DHT22;407;48.884;9.126;2023-06-10T13:17:20;30.60;99.90
843;DHT22;407;48.884;9.126;2023-06-10T13:19:46;30.50;99.90
843;DHT22;407;48.884;9.126;2023-06-10T13:22:11;30.60;99.90
843;DHT22;407;48.884;9.126;2023-06-10T13:24:39;30.60;99.90
843;DHT22;407;48.884;9.126;2023-06-10T13:27:05;30.80;99.90
843;DHT22;407;48.884;9.126;2023-06-10T13:29:32;30.90;99.90
843;DHT22;407;48.884;9.126;2023-06-10T13:31:57;31.00;99.90
843;DHT22;407;48.884;9.126;2023-06-10T13:34:23;31.30;99.90
843;DHT22;407;48.884;9.126;2023-06-10T13:36:48;31.70;99.90
843;DHT22;407;48.884;9.126;2023-06-10T13:39:14;32.10;99.90
843;DHT22;407;48.884;9.126;2023-06-10T13:41:40;32.10;99.90
843;DHT22;407;48.884;9.126;2023-06-10T13:44:07;31.90;99.90
843;DHT22;407;48.884;9.126;2023-06-10T13:46:33;31.50;99.90
843;DHT22;407;48.884;9.126;2023-06-10T13:48:58;30.90;99.90
843;DHT22;407;48.884;9.126;2023-06-10T13:51:24;30.70;99.90
843;DHT22;407;48.884;9.126;2023-06-10T13:53:50;30.50;99.90
843;DHT22;407;48.884;9.126;2023-06-10T13:56:17;30.50;99.90
843;DHT22;407;48.884;9.126;2023-06-10T13:58:43;30.80;99.90
843;DHT22;407;48.884;9.126;2023-06-10T14:01:08;30.70;99.90
843;DHT22;407;48.884;9.126;2023-06-10T14:03:34;30.90;99.90
843;DHT22;407;48.884;9.126;2023-06-10T14:05:59;31.10;99.90
843;DHT22;407;48.884;9.126;2023-06-10T14:08:25;31.30;99.90
843;DHT22;407;48.884;9.126;2023-06-10T14:10:50;31.10;99.90
843;DHT22;407;48.884;9.126;2023-06-10T14:13:17;30.90;99.90
843;DHT22;407;48.884;9.126;2023-06-10T14:15:42;31.20;99.90
843;DHT22;407;48.884;9.126;2023-06-10T14:18:08;31.40;99.90
843;DHT22;407;48.884;9.126;2023-06-10T14:20:34;31.40;99.90
843;DHT22;407;48.884;9.126;2023-06-10T14:22:59;31.60;99.90
843;DHT22;407;48.884;9.126;2023-06-10T14:25:25;31.60;99.90
843;DHT22;407;48.884;9.126;2023-06-10T14:27:51;31.50;99.90
843;DHT22;407;48.884;9.126;2023-06-10T14:30:16;31.30;99.90
843;DHT22;407;48.884;9.126;2023-06-10T14:32:42;30.80;99.90
843;DHT22;407;48.884;9.126;2023-06-10T14:35:08;30.40;99.90
843;DHT22;407;48.884;9.126;2023-06-10T14:37:35;30.40;99.90
843;DHT22;407;48.884;9.126;2023-06-10T14:40:00;30.70;99.90
843;DHT22;407;48.884;9.126;2023-06-10T14:42:26;30.80;99.90
843;DHT22;407;48.884;9.126;2023-06-10T14:44:51;30.80;99.90
843;DHT22;407;48.884;9.126;2023-06-10T14:47:17;30.80;99.90
843;DHT22;407;48.884;9.126;2023-06-10T14:49:42;31.00;99.90
843;DHT22;407;48.884;9.126;2023-06-10T14:52:09;30.90;99.90
843;DHT22;407;48.884;9.126;2023-06-10T14:54:35;30.70;99.90
843;DHT22;407;48.884;9.126;2023-06-10T14:57:00;30.50;99.90
843;DHT22;407;48.884;9.126;2023-06-10T14:59:26;30.80;99.90
843;DHT22;407;48.884;9.126;2023-06-10T15:01:52;30.90;99.90
843;DHT22;407;48.884;9.126;2023-06-10T15:04:17;30.90;99.90
843;DHT22;407;48.884;9.126;2023-06-10T15:06:43;30.90;99.90
843;DHT22;407;48.884;9.126;2023-06-10T15:09:09;30.90;99.90
843;DHT22;407;48.884;9.126;2023-06-10T15:11:34;30.70;99.90
843;DHT22;407;48.884;9.126;2023-06-10T15:14:00;30.70;99.90
843;DHT22;407;48.884;9.126;2023-06-10T15:16:27;30.50;99.90
843;DHT22;407;48.884;9.126;2023-06-10T15:18:52;30.70;99.90
843;DHT22;407;48.884;9.126;2023-06-10T15:21:18;30.70;99.90
843;DHT22;407;48.884;9.126;2023-06-10T15:23:43;30.70;99.90
843;DHT22;407;48.884;9.126;2023-06-10T15:26:10;30.50;99.90
843;DHT22;407;48.884;9.126;2023-06-10T15:28:35;30.50;99.90
843;DHT22;407;48.884;9.126;2023-06-10T15:31:01;30.50;99.90
843;DHT22;407;48.884;9.126;2023-06-10T15:33:26;30.50;99.90
843;DHT22;407;48.884;9.126;2023-06-10T15:35:51;30.40;99.90
843;DHT22;407;48.884;9.126;2023-06-10T15:38:18;30.40;99.90
843;DHT22;407;48.884;9.126;2023-06-10T15:40:43;30.00;99.90
843;DHT22;407;48.884;9.126;2023-06-10T15:43:10;29.80;99.90
843;DHT22;407;48.884;9.126;2023-06-10T15:45:35;29.60;99.90
843;DHT22;407;48.884;9.126;2023-06-10T15:48:01;29.40;99.90
843;DHT22;407;48.884;9.126;2023-06-10T15:50:27;29.60;99.90
843;DHT22;407;48.884;9.126;2023-06-10T15:52:52;30.00;99.90
843;DHT22;407;48.884;9.126;2023-06-10T15:55:18;30.20;99.90
843;DHT22;407;48.884;9.126;2023-06-10T15:57:43;30.10;99.90
843;DHT22;407;48.884;9.126;2023-06-10T16:00:09;30.20;99.90
843;DHT22;407;48.884;9.126;2023-06-10T16:02:34;30.20;99.90
843;DHT22;407;48.884;9.126;2023-06-10T16:05:00;30.10;99.90
843;DHT22;407;48.884;9.126;2023-06-10T16:07:25;30.10;99.90
843;DHT22;407;48.884;9.126;2023-06-10T16:09:51;29.90;99.90
843;DHT22;407;48.884;9.126;2023-06-10T16:12:16;29.80;99.90
843;DHT22;407;48.884;9.126;2023-06-10T16:14:42;29.80;99.90
843;DHT22;407;48.884;9.126;2023-06-10T16:17:07;29.80;99.90
843;DHT22;407;48.884;9.126;2023-06-10T16:19:33;29.80;99.90
843;DHT22;407;48.884;9.126;2023-06-10T16:21:59;29.80;99.90
843;DHT22;407;48.884;9.126;2023-06-10T16:24:25;29.80;99.90
843;DHT22;407;48.884;9.126;2023-06-10T16:26:51;29.90;99.90
843;DHT22;407;48.884;9.126;2023-06-10T16:29:16;29.70;99.90
843;DHT22;407;48.884;9.126;2023-06-10T16:31:42;29.80;99.90
843;DHT22;407;48.884;9.126;2023-06-10T16:34:07;29.90;99.90
843;DHT22;407;48.884;9.126;2023-06-10T16:36:33;29.90;99.90
843;DHT22;407;48.884;9.126;2023-06-10T16:39:13;30.00;99.90
843;DHT22;407;48.884;9.126;2023-06-10T16:41:39;30.00;99.90
843;DHT22;407;48.884;9.126;2023-06-10T16:44:05;29.90;99.90
843;DHT22;407;48.884;9.126;2023-06-10T16:46:31;29.90;99.90
843;DHT22;407;48.884;9.126;2023-06-10T16:48:56;29.80;99.90
843;DHT22;407;48.884;9.126;2023-06-10T16:51:22;29.70;99.90
843;DHT22;407;48.884;9.126;2023-06-10T16:53:48;29.40;99.90
843;DHT22;407;48.884;9.126;2023-06-10T16:56:13;29.30;99.90
843;DHT22;407;48.884;9.126;2023-06-10T16:58:39;29.30;99.90
843;DHT22;407;48.884;9.126;2023-06-10T17:01:07;29.20;99.90